Aérodrome :
LOGIN :

S'inscrire | Disclaimer

   EN    FR    IT 

 










Légende :    VFR   VFR Marginal   IFR   IFR Intensif   IFR Très Intensif
Visi : 
Plafond : 
>= 8 km
>= 3000ft
5 à 8 km
1000 à 3000 ft
1500m à 5 km
500 à 1000 ft
800 à 1500m
200 à 500 ft
< 800m
< 200 ft
Symboles :   Orages  Brouillard  Fortes neiges  Fortes précipitations  Vent > 20 kt
SIGMETs :   Divers  Orages  Givrage  Turbulence  Onde Orograph.  Cendres Volcan.







- Altitude de l'aérodrome : 1300 ft
- Code IATA : LIG
- Voir les cartes d'approche


LFBL - Limoges

DERNIER METAR :
  • 171000Z AUTO 08005KT 030V110 CAVOK 18/13 Q1019 NOSIG

METARs EXPIRÉS :
  • 170930Z AUTO 09003KT 050V140 CAVOK 17/13 Q1019 NOSIG
  • 170900Z AUTO 09003KT 050V120 CAVOK 16/13 Q1019 NOSIG
  • 170830Z AUTO 07003KT 030V090 CAVOK 15/12 Q1019 NOSIG
  • 170800Z AUTO 04004KT CAVOK 14/12 Q1019 NOSIG
  • 170730Z AUTO 03002KT CAVOK 13/12 Q1019 NOSIG

TAF TAF LFBL
Valide du 17 à 06h jusqu'au 18 à 06h UTC


170500Z 1706/1806 VRB02KT CAVOK
PROB30
TEMPO 1706/1708 3000 BR
PROB30
TEMPO 1708/1721 BKN030
BECMG 1710/1712 08005KT
BECMG 1718/1720 01005KT
ATIS : +33 5 55 48 40 37
Pas de NOTAMs connus pour ce terrain.



MET'MAP, la Météo Aéronautique d'un coup d'oeil ! - Copyright ORBIFLY Décembre 2007 - Disclaimer

ORBIFLY MET'MAP TEAM :

Programmation & Développement : Alexandra Zaïnal
Conception & Développement : Baudouin d'Aumeries
Co-Programmation & Développement : Marc-Olivier Méhu
Soutien technique & logistique : Manuel Goepfert

Contact : metmap@orbifly.com




SOURCES & CREDITS :

   NOAA